Portada
METAR-TAF:

METAR-TAF

Aeroports :

Tours, França

latitud: 47-27N, longitud: 000-43E, altitud: 108 m

Observació

L'informe es va fer fa 23 minuts, a les 09:00 UTC
Vent 10 kt del Est/Nord-Est, variant entre Nord i Est
Temperatura 21°C
Humitat 53%
Pressió 1033 hPa
Visibilitat: 6000 m

METAR: LFOT 260900Z AUTO 06010KT 360V090 6000 NSC 21/11 Q1033 TEMPO 05015G25KT

Hora: 11:23 (09:23 UTC)

Pronòstic

L'informe es va fer fa 4 hores i 23 minuts, a les 05:00 UTC
Pronòstic vàlid del 26 a les 06 UTC al 27 a les 06 UTC
Vent 8 kt del Nord-Est
Visibilitat 10 km o més
sense núvols per sota de 1500 mi sense presència de cumulonimbus.
Temporalment
l' 26 a les 10 UTC al 26 a les 19 UTC
Vent 15 kt del Nord-Est amb ràfegues de 25 kt

TAF: LFOT 260500Z 2606/2706 05008KT CAVOK TEMPO 2610/2619 05015G25KT

Observacions i pronòstics meteorològics de més de 4000 aeroports (METAR i TAF).

Les estacions disponibles són els punts grocs i vermells al mapa.

Posi el ratolí al punt desitjat per veure el nom de l'estació.

Feu clic per veure les observacions i els pronòstics meteorològics.

Per canviar el mapa: feu clic els botons verds amb una creu de color negre per apropar; al botó verd amb un guió per allunyar la imatge; o en les fletxes verdes per a mapes adjacents.


METAR-TAF: